createdAt,value
2017-12-08T00:00:28.410Z,99226.89
2017-12-08T00:03:02.929Z,99229.13
2017-12-08T00:05:37.314Z,99218.67
2017-12-08T00:08:11.968Z,99204.48
2017-12-08T00:10:46.649Z,99194.99
2017-12-08T00:13:21.022Z,99196.42
2017-12-08T00:15:55.445Z,99190.38
2017-12-08T00:18:31.935Z,99191.00
2017-12-08T00:21:06.513Z,99174.27
2017-12-08T00:23:41.032Z,99169.60
2017-12-08T00:26:15.804Z,99177.11
2017-12-08T00:28:50.186Z,99174.98
2017-12-08T00:31:24.587Z,99175.09
2017-12-08T00:33:59.381Z,99170.81
2017-12-08T00:36:33.798Z,99149.03
2017-12-08T00:39:08.183Z,99167.28
2017-12-08T00:41:42.855Z,99167.69
2017-12-08T00:44:18.243Z,99158.53
2017-12-08T00:46:52.642Z,99159.77
2017-12-08T00:49:27.237Z,99155.88
2017-12-08T00:52:01.916Z,99152.36
2017-12-08T00:54:36.825Z,99137.34
2017-12-08T00:57:11.899Z,99142.22
2017-12-08T00:59:46.569Z,99146.98
2017-12-08T01:02:21.052Z,99140.27
2017-12-08T01:04:55.610Z,99133.28
2017-12-08T01:07:30.094Z,99133.17
2017-12-08T01:12:44.506Z,99127.03
2017-12-08T01:15:19.209Z,99121.20
2017-12-08T01:17:53.971Z,99117.02
2017-12-08T01:20:28.799Z,99108.11
2017-12-08T01:23:04.534Z,99105.57
2017-12-08T01:25:39.206Z,99093.03
2017-12-08T01:28:13.871Z,99098.41
2017-12-08T01:30:48.612Z,99090.23
2017-12-08T01:33:23.352Z,99088.20
2017-12-08T01:35:58.102Z,99081.01
2017-12-08T01:38:32.908Z,99064.59
2017-12-08T01:41:07.722Z,99070.58
2017-12-08T01:43:42.410Z,99068.48
2017-12-08T01:46:17.204Z,99057.81
2017-12-08T01:48:51.754Z,99059.76
2017-12-08T01:51:26.173Z,99051.00
2017-12-08T01:54:01.135Z,99049.17
2017-12-08T01:56:36.826Z,99043.72
2017-12-08T01:59:11.365Z,99023.55
2017-12-08T02:01:46.126Z,99027.28
2017-12-08T02:04:20.650Z,99023.31
2017-12-08T02:06:55.046Z,99012.37
2017-12-08T02:09:29.736Z,99007.73
2017-12-08T02:12:04.230Z,98994.98
2017-12-08T02:14:38.874Z,98955.71
2017-12-08T02:17:13.324Z,98997.02
2017-12-08T02:19:48.101Z,99002.23
2017-12-08T02:22:22.719Z,98995.87
2017-12-08T02:24:56.886Z,98986.26
2017-12-08T02:27:31.279Z,98983.80
2017-12-08T02:30:11.430Z,98981.09
2017-12-08T02:32:45.847Z,98982.48
2017-12-08T02:35:20.557Z,98979.06
2017-12-08T02:37:54.736Z,98972.49
2017-12-08T02:40:29.194Z,98970.45
2017-12-08T02:43:03.572Z,98971.23
2017-12-08T02:45:37.998Z,98978.13
2017-12-08T02:48:12.535Z,98966.15
2017-12-08T02:50:46.631Z,98970.45
2017-12-08T02:53:21.066Z,98966.72
2017-12-08T02:55:56.369Z,98958.66
2017-12-08T02:58:30.794Z,98950.09
2017-12-08T03:01:04.883Z,98951.59
2017-12-08T03:03:39.326Z,98949.18
2017-12-08T03:06:13.714Z,98945.41
2017-12-08T03:08:48.255Z,98945.31
2017-12-08T03:11:22.677Z,98939.97
2017-12-08T03:13:57.258Z,98941.63
2017-12-08T03:16:31.606Z,98929.83
2017-12-08T03:19:06.083Z,98921.86
2017-12-08T03:21:40.534Z,98921.93
2017-12-08T03:24:15.053Z,98908.06
2017-12-08T03:26:49.492Z,98906.96
2017-12-08T03:29:24.847Z,98900.08
2017-12-08T03:31:59.410Z,98853.05
2017-12-08T03:34:33.953Z,98885.35
2017-12-08T03:37:08.722Z,98884.74
2017-12-08T03:39:43.544Z,98877.02
2017-12-08T03:42:18.289Z,98863.72
2017-12-08T03:44:53.446Z,98858.89
2017-12-08T03:47:27.848Z,98851.89
2017-12-08T03:50:02.387Z,98847.17
2017-12-08T03:52:36.853Z,98835.17
2017-12-08T03:55:11.636Z,98826.66
2017-12-08T03:57:46.201Z,98826.82
2017-12-08T04:00:20.577Z,98831.69
2017-12-08T04:02:54.969Z,98825.17
2017-12-08T04:05:30.626Z,98803.35
2017-12-08T04:08:05.245Z,98800.34
2017-12-08T04:10:39.650Z,98807.53
2017-12-08T04:13:14.030Z,98796.13
2017-12-08T04:15:48.438Z,98794.64
2017-12-08T04:18:23.290Z,98796.67
2017-12-08T04:20:58.373Z,98796.77
2017-12-08T04:23:33.745Z,98796.86
2017-12-08T04:26:08.548Z,98800.33
2017-12-08T04:28:43.203Z,98799.91
2017-12-08T04:31:17.947Z,98799.17
2017-12-08T04:33:52.862Z,98782.77
2017-12-08T04:36:27.530Z,98795.09
2017-12-08T04:39:02.110Z,98785.82
2017-12-08T04:41:36.523Z,98782.55
2017-12-08T04:44:11.229Z,98785.27
2017-12-08T04:46:45.651Z,98783.80
2017-12-08T04:49:20.156Z,98783.67
2017-12-08T04:51:55.006Z,98770.75
2017-12-08T04:54:29.566Z,98773.59
2017-12-08T04:57:03.934Z,98764.88
2017-12-08T04:59:38.466Z,98762.11
2017-12-08T05:02:12.842Z,98759.17
2017-12-08T05:04:47.309Z,98760.64
2017-12-08T05:07:21.786Z,98750.39
2017-12-08T05:09:56.332Z,98757.92
2017-12-08T05:12:30.422Z,98749.01
2017-12-08T05:15:05.318Z,98748.70
2017-12-08T05:17:40.428Z,98741.77
2017-12-08T05:20:15.322Z,98742.94
2017-12-08T05:22:49.506Z,98735.91
2017-12-08T05:25:23.872Z,98739.84
2017-12-08T05:27:58.385Z,98746.59
2017-12-08T05:30:32.916Z,98742.79
2017-12-08T05:33:07.518Z,98742.46
2017-12-08T05:35:41.593Z,98746.83
2017-12-08T05:38:16.094Z,98744.73
2017-12-08T05:40:50.497Z,98750.06
2017-12-08T05:43:25.395Z,98758.56
2017-12-08T05:45:59.801Z,98748.31
2017-12-08T05:48:34.332Z,98746.30
2017-12-08T05:51:08.793Z,98741.00
2017-12-08T05:53:43.300Z,98738.69
2017-12-08T05:56:17.727Z,98741.63
2017-12-08T05:58:52.184Z,98731.36
2017-12-08T06:01:26.868Z,98747.99
2017-12-08T06:04:01.390Z,98732.80
2017-12-08T06:06:35.852Z,98740.27
2017-12-08T06:09:10.286Z,98731.73
2017-12-08T06:11:44.707Z,98718.25
2017-12-08T06:14:19.321Z,98704.29
2017-12-08T06:16:53.454Z,98702.01
2017-12-08T06:19:28.270Z,98714.38
2017-12-08T06:22:02.998Z,98731.91
2017-12-08T06:24:37.666Z,98729.72
2017-12-08T06:27:12.180Z,98729.49
2017-12-08T06:29:47.044Z,98730.90
2017-12-08T06:32:22.137Z,98741.92
2017-12-08T06:34:56.923Z,98745.31
2017-12-08T06:37:31.670Z,98755.36
2017-12-08T06:40:09.356Z,98758.86
2017-12-08T06:42:44.158Z,98760.45
2017-12-08T06:45:18.830Z,98767.58
2017-12-08T06:47:53.614Z,98778.69
2017-12-08T06:50:28.350Z,98771.77
2017-12-08T06:53:03.221Z,98776.56
2017-12-08T06:55:38.030Z,98781.21
2017-12-08T06:58:12.729Z,98793.11
2017-12-08T07:00:47.484Z,98784.88
2017-12-08T07:03:23.002Z,98788.01
2017-12-08T07:05:58.194Z,98773.34
2017-12-08T07:08:32.649Z,98773.05
2017-12-08T07:11:08.070Z,98786.41
2017-12-08T07:13:42.946Z,98799.06
2017-12-08T07:16:17.643Z,98803.38
2017-12-08T07:18:52.194Z,98794.81
2017-12-08T07:21:27.110Z,98797.94
2017-12-08T07:24:01.961Z,98792.32
2017-12-08T07:26:36.619Z,98787.42
2017-12-08T07:29:11.503Z,98792.25
2017-12-08T07:31:46.188Z,98787.05
2017-12-08T07:34:20.978Z,98794.58
2017-12-08T07:36:55.378Z,98794.28
2017-12-08T07:39:29.882Z,98793.02
2017-12-08T07:42:04.793Z,98791.66
2017-12-08T07:44:39.315Z,98788.38
2017-12-08T07:47:13.372Z,98788.58
2017-12-08T07:49:51.375Z,98776.33
2017-12-08T07:52:32.068Z,98764.73
2017-12-08T07:55:11.139Z,98760.91
2017-12-08T07:57:51.885Z,98757.72
2017-12-08T08:00:29.855Z,98764.58
2017-12-08T08:03:09.846Z,98678.73
2017-12-08T08:05:48.287Z,98748.45
2017-12-08T08:08:24.818Z,98753.50
2017-12-08T08:11:03.321Z,98728.38
2017-12-08T08:13:38.878Z,98747.80
2017-12-08T08:16:18.207Z,98756.16
2017-12-08T08:18:58.648Z,98744.52
2017-12-08T08:21:37.584Z,98741.43
2017-12-08T08:24:12.718Z,98731.57
2017-12-08T08:26:47.231Z,98738.06
2017-12-08T08:29:21.635Z,98747.56
2017-12-08T08:31:56.173Z,98745.28
2017-12-08T08:34:31.458Z,98744.77
2017-12-08T08:37:05.947Z,98748.41
2017-12-08T08:39:40.636Z,98747.84
2017-12-08T08:42:14.826Z,98749.69
2017-12-08T08:44:49.419Z,98743.85
2017-12-08T08:47:23.778Z,98742.58
2017-12-08T08:49:58.273Z,98744.86
2017-12-08T08:52:32.693Z,98754.52
2017-12-08T08:55:07.194Z,98756.34
2017-12-08T08:57:41.677Z,98763.72
2017-12-08T09:00:16.801Z,98761.52
2017-12-08T09:02:51.230Z,98762.52
2017-12-08T09:05:25.687Z,98751.75
2017-12-08T09:08:00.330Z,98750.91
2017-12-08T09:10:34.746Z,98759.57
2017-12-08T09:13:09.202Z,98730.47
2017-12-08T09:15:43.625Z,98751.54
2017-12-08T09:18:18.759Z,98748.93
2017-12-08T09:20:53.347Z,98751.97
2017-12-08T09:23:27.590Z,98742.49
2017-12-08T09:26:02.178Z,98745.80
2017-12-08T09:28:36.718Z,98745.57
2017-12-08T09:31:11.086Z,98749.63
2017-12-08T09:33:46.479Z,98741.53
2017-12-08T09:36:20.978Z,98735.42
2017-12-08T09:38:55.475Z,98720.94
2017-12-08T09:41:30.013Z,98724.50
2017-12-08T09:44:04.535Z,98734.97
2017-12-08T09:46:38.970Z,98731.50
2017-12-08T09:49:13.512Z,98721.55
2017-12-08T09:51:47.886Z,98676.36
2017-12-08T09:54:23.312Z,98722.25
2017-12-08T09:56:57.886Z,98714.64
2017-12-08T09:59:32.046Z,98718.61
2017-12-08T10:02:06.461Z,98719.39
2017-12-08T10:04:41.073Z,98720.88
2017-12-08T10:07:15.860Z,98712.53
2017-12-08T10:09:50.383Z,98713.63
2017-12-08T10:12:24.766Z,98703.00
2017-12-08T10:14:59.286Z,98698.33
2017-12-08T10:17:33.642Z,98700.91
2017-12-08T10:20:08.029Z,98704.48
2017-12-08T10:22:42.013Z,98707.39
2017-12-08T10:25:16.416Z,98705.20
2017-12-08T10:27:51.025Z,98707.77
2017-12-08T10:30:25.078Z,98710.30
2017-12-08T10:32:59.321Z,98698.85
2017-12-08T10:35:33.729Z,98704.31
2017-12-08T10:38:08.301Z,98694.33
2017-12-08T10:40:42.450Z,98692.52
2017-12-08T10:43:16.869Z,98690.19
2017-12-08T10:45:51.318Z,98687.74
2017-12-08T10:48:25.898Z,98674.61
2017-12-08T10:51:00.349Z,98681.16
2017-12-08T10:53:35.053Z,98683.80
2017-12-08T10:56:09.762Z,98685.95
2017-12-08T10:58:44.142Z,98684.51
2017-12-08T11:01:18.655Z,98687.38
2017-12-08T11:03:53.158Z,98686.45
2017-12-08T11:06:27.655Z,98687.67
2017-12-08T11:09:02.122Z,98676.73
2017-12-08T11:11:36.243Z,98674.49
2017-12-08T11:14:10.836Z,98687.88
2017-12-08T11:16:45.260Z,98683.47
2017-12-08T11:19:20.080Z,98682.84
2017-12-08T11:21:54.426Z,98669.70
2017-12-08T11:24:29.921Z,98673.06
2017-12-08T11:27:04.644Z,98663.41
2017-12-08T11:29:41.874Z,98666.48
2017-12-08T11:32:16.334Z,98670.25
2017-12-08T11:34:50.911Z,98661.06
2017-12-08T11:37:25.978Z,98640.75
2017-12-08T11:40:00.230Z,98587.14
2017-12-08T11:42:34.681Z,98662.76
2017-12-08T11:45:08.806Z,98657.27
2017-12-08T11:47:43.158Z,98662.67
2017-12-08T11:50:17.593Z,98650.66
2017-12-08T11:52:52.175Z,98651.17
2017-12-08T11:55:26.537Z,98653.20
2017-12-08T11:58:01.106Z,98644.91
2017-12-08T12:00:35.545Z,98640.36
2017-12-08T12:03:09.974Z,98630.44
2017-12-08T12:05:44.470Z,98632.82
2017-12-08T12:08:18.841Z,98625.56
2017-12-08T12:10:53.305Z,98622.52
2017-12-08T12:13:27.827Z,98622.36
2017-12-08T12:16:02.214Z,98620.03
2017-12-08T12:18:36.702Z,98619.84
2017-12-08T12:21:11.150Z,98619.61
2017-12-08T12:23:45.675Z,98607.44
2017-12-08T12:26:20.075Z,98604.45
2017-12-08T12:28:54.493Z,98615.61
2017-12-08T12:31:29.010Z,98621.34
2017-12-08T12:34:03.624Z,98628.25
2017-12-08T12:36:38.135Z,98624.31
2017-12-08T12:39:12.766Z,98617.58
2017-12-08T12:41:47.250Z,98615.35
2017-12-08T12:44:21.866Z,98616.02
2017-12-08T12:46:56.257Z,98611.34
2017-12-08T12:49:30.739Z,98600.71
2017-12-08T12:52:05.222Z,98614.84
2017-12-08T12:54:39.797Z,98617.34
2017-12-08T12:57:14.274Z,98616.19
2017-12-08T12:59:48.765Z,98618.44
2017-12-08T13:02:23.379Z,98625.36
2017-12-08T13:04:58.523Z,98606.67
2017-12-08T13:07:33.074Z,98609.55
2017-12-08T13:10:07.631Z,98549.61
2017-12-08T13:12:42.673Z,98603.82
2017-12-08T13:15:17.070Z,98594.67
2017-12-08T13:17:52.305Z,98592.56
2017-12-08T13:20:26.920Z,98595.28
2017-12-08T13:23:01.858Z,98603.27
2017-12-08T13:25:36.362Z,98595.94
2017-12-08T13:28:11.381Z,98586.64
2017-12-08T13:30:45.871Z,98598.78
2017-12-08T13:33:20.278Z,98599.56
2017-12-08T13:35:54.641Z,98615.11
2017-12-08T13:38:30.506Z,98571.81
2017-12-08T13:41:05.059Z,98597.88
2017-12-08T13:43:39.554Z,98601.96
2017-12-08T13:46:13.938Z,98587.42
2017-12-08T13:48:48.783Z,98581.52
2017-12-08T13:51:23.261Z,98594.78
2017-12-08T13:54:08.888Z,98594.36
2017-12-08T13:56:57.668Z,98595.57
2017-12-08T13:59:32.272Z,98586.77
2017-12-08T14:02:06.346Z,98596.00
2017-12-08T14:04:40.831Z,98576.61
2017-12-08T14:07:15.192Z,98587.67
2017-12-08T14:09:49.654Z,98591.96
2017-12-08T14:12:24.217Z,98583.59
2017-12-08T14:14:58.673Z,98565.39
2017-12-08T14:17:33.310Z,98587.19
2017-12-08T14:20:14.002Z,98494.33
2017-12-08T14:22:48.521Z,98588.95
2017-12-08T14:25:22.871Z,98592.27
2017-12-08T14:27:57.250Z,98584.80
2017-12-08T14:30:31.957Z,98576.34
2017-12-08T14:33:06.687Z,98593.70
2017-12-08T14:35:41.193Z,98591.09
2017-12-08T14:38:15.783Z,98528.51
2017-12-08T14:40:50.282Z,98592.72
2017-12-08T14:43:25.701Z,98600.51
2017-12-08T14:46:00.215Z,98599.83
2017-12-08T14:48:34.710Z,98611.48
2017-12-08T14:51:09.262Z,98599.64
2017-12-08T14:53:43.674Z,98596.18
2017-12-08T14:56:18.135Z,98601.73
2017-12-08T14:58:53.891Z,98596.52
2017-12-08T15:01:28.472Z,98589.98
2017-12-08T15:04:03.074Z,98598.69
2017-12-08T15:06:37.498Z,98599.48
2017-12-08T15:09:11.864Z,98610.92
2017-12-08T15:11:46.044Z,98610.05
2017-12-08T15:14:21.298Z,98603.44
2017-12-08T15:16:55.385Z,98619.27
2017-12-08T15:19:29.901Z,98608.00
2017-12-08T15:22:04.409Z,98605.83
2017-12-08T15:24:38.971Z,98613.19
2017-12-08T15:27:13.831Z,98615.63
2017-12-08T15:29:49.042Z,98624.72
2017-12-08T15:32:23.573Z,98625.53
2017-12-08T15:34:58.155Z,98609.92
2017-12-08T15:37:32.214Z,98605.80
2017-12-08T15:40:11.717Z,98616.80
2017-12-08T15:42:46.249Z,98614.00
2017-12-08T15:45:20.657Z,98626.59
2017-12-08T15:47:54.863Z,98629.00
2017-12-08T15:50:28.845Z,98626.20
2017-12-08T15:53:02.807Z,98629.29
2017-12-08T15:55:38.101Z,98623.09
2017-12-08T15:58:12.549Z,98624.12
2017-12-08T16:00:47.441Z,98613.86
2017-12-08T16:03:22.058Z,98618.33
2017-12-08T16:05:56.434Z,98617.28
2017-12-08T16:08:30.935Z,98631.13
2017-12-08T16:11:06.080Z,98627.95
2017-12-08T16:13:40.494Z,98632.39
2017-12-08T16:16:14.642Z,98631.67
2017-12-08T16:18:49.090Z,98638.64
2017-12-08T16:21:23.597Z,98630.20
2017-12-08T16:23:58.150Z,98643.94
2017-12-08T16:26:32.744Z,98640.88
2017-12-08T16:29:11.793Z,98605.64
2017-12-08T16:31:46.223Z,98626.00
2017-12-08T16:34:21.443Z,98618.56
2017-12-08T16:36:56.057Z,98616.06
2017-12-08T16:39:30.307Z,98620.61
2017-12-08T16:42:04.690Z,98619.70
2017-12-08T16:44:39.138Z,98630.61
2017-12-08T16:47:13.570Z,98630.90
2017-12-08T16:49:48.190Z,98629.75
2017-12-08T16:52:22.617Z,98642.48
2017-12-08T16:54:57.310Z,98639.94
2017-12-08T16:57:31.858Z,98644.55
2017-12-08T17:00:08.691Z,98651.72
2017-12-08T17:02:43.326Z,98646.82
2017-12-08T17:05:17.755Z,98636.96
2017-12-08T17:07:52.175Z,98640.05
2017-12-08T17:10:26.538Z,98635.30
2017-12-08T17:13:01.370Z,98637.16
2017-12-08T17:15:35.778Z,98629.68
2017-12-08T17:18:10.040Z,98634.63
2017-12-08T17:20:44.097Z,98631.66
2017-12-08T17:23:18.466Z,98615.95
2017-12-08T17:25:52.533Z,98608.81
2017-12-08T17:28:27.061Z,98599.17
2017-12-08T17:31:01.433Z,98601.27
2017-12-08T17:33:35.994Z,98606.06
2017-12-08T17:36:10.398Z,98612.28
2017-12-08T17:38:45.026Z,98623.23
2017-12-08T17:41:19.054Z,98630.14
2017-12-08T17:43:53.558Z,98625.70
2017-12-08T17:46:28.053Z,98615.19
2017-12-08T17:49:02.574Z,98602.47
2017-12-08T17:51:36.917Z,98604.25
2017-12-08T17:54:11.432Z,98611.21
2017-12-08T17:56:45.774Z,98604.03
2017-12-08T17:59:20.322Z,98616.02
2017-12-08T18:01:54.718Z,98613.36
2017-12-08T18:04:29.250Z,98610.55
2017-12-08T18:07:04.443Z,98605.13
2017-12-08T18:09:39.060Z,98611.25
2017-12-08T18:12:13.175Z,98624.16
2017-12-08T18:14:47.370Z,98615.91
2017-12-08T18:17:21.515Z,98619.89
2017-12-08T18:19:55.673Z,98615.89
2017-12-08T18:22:30.056Z,98597.48
2017-12-08T18:25:04.504Z,98605.88
2017-12-08T18:27:38.879Z,98614.52
2017-12-08T18:30:14.270Z,98603.35
2017-12-08T18:32:48.749Z,98606.48
2017-12-08T18:35:23.222Z,98608.63
2017-12-08T18:37:58.017Z,98500.97
2017-12-08T18:40:32.593Z,98607.70
2017-12-08T18:43:07.166Z,98595.19
2017-12-08T18:45:41.551Z,98605.42
2017-12-08T18:48:16.068Z,98597.68
2017-12-08T18:50:50.485Z,98601.34
2017-12-08T18:53:24.896Z,98580.53
2017-12-08T18:56:03.475Z,98589.39
2017-12-08T18:58:38.586Z,98588.45
2017-12-08T19:01:13.163Z,98593.27
2017-12-08T19:03:47.751Z,98596.02
2017-12-08T19:06:21.817Z,98580.69
2017-12-08T19:08:56.379Z,98581.20
2017-12-08T19:11:30.750Z,98595.44
2017-12-08T19:14:05.286Z,98591.45
2017-12-08T19:16:40.579Z,98590.81
2017-12-08T19:19:15.813Z,98582.69
2017-12-08T19:21:50.438Z,98590.06
2017-12-08T19:24:24.714Z,98576.45
2017-12-08T19:26:59.079Z,98569.30
2017-12-08T19:29:33.582Z,98572.35
2017-12-08T19:32:07.650Z,98575.27
2017-12-08T19:34:42.217Z,98558.02
2017-12-08T19:37:16.622Z,98563.86
2017-12-08T19:39:51.091Z,98563.03
2017-12-08T19:42:25.590Z,98567.69
2017-12-08T19:45:00.174Z,98568.50
2017-12-08T19:47:34.626Z,98585.14
2017-12-08T19:50:10.693Z,98602.58
2017-12-08T19:52:45.074Z,98533.94
2017-12-08T19:55:19.497Z,98582.63
2017-12-08T19:57:53.998Z,98579.72
2017-12-08T20:00:39.577Z,98565.39
2017-12-08T20:03:14.069Z,98601.88
2017-12-08T20:05:48.521Z,98587.74
2017-12-08T20:08:23.150Z,98607.52
2017-12-08T20:10:57.590Z,98590.00
2017-12-08T20:13:31.862Z,98593.95
2017-12-08T20:16:06.393Z,98588.53
2017-12-08T20:18:40.885Z,98576.08
2017-12-08T20:21:14.935Z,98576.48
2017-12-08T20:23:49.126Z,98572.75
2017-12-08T20:26:23.562Z,98586.97
2017-12-08T20:28:58.094Z,98552.52
2017-12-08T20:31:32.486Z,98535.77
2017-12-08T20:34:07.090Z,98568.89
2017-12-08T20:36:41.835Z,98567.27
2017-12-08T20:39:16.230Z,98551.01
2017-12-08T20:41:50.622Z,98552.86
2017-12-08T20:44:25.022Z,98564.93
2017-12-08T20:46:59.495Z,98566.84
2017-12-08T20:49:34.046Z,98549.75
2017-12-08T20:52:08.387Z,98578.73
2017-12-08T20:54:42.978Z,98579.72
2017-12-08T20:57:17.459Z,98582.08
2017-12-08T20:59:52.073Z,98583.74
2017-12-08T21:02:26.429Z,98575.14
2017-12-08T21:05:00.999Z,98568.19
2017-12-08T21:07:35.371Z,98568.14
2017-12-08T21:10:15.570Z,98584.33
2017-12-08T21:12:50.008Z,98592.09
2017-12-08T21:15:24.777Z,98593.13
2017-12-08T21:17:59.318Z,98604.30
2017-12-08T21:20:33.710Z,98578.25
2017-12-08T21:23:08.443Z,98613.62
2017-12-08T21:25:42.498Z,98601.43
2017-12-08T21:28:16.565Z,98599.14
2017-12-08T21:30:50.928Z,98598.42
2017-12-08T21:33:25.399Z,98576.30
2017-12-08T21:35:59.879Z,98591.28
2017-12-08T21:38:34.434Z,98574.00
2017-12-08T21:41:08.853Z,98602.55
2017-12-08T21:43:43.444Z,98593.45
2017-12-08T21:46:17.918Z,98599.16
2017-12-08T21:48:52.538Z,98602.53
2017-12-08T21:51:26.969Z,98584.16
2017-12-08T21:54:01.541Z,98601.80
2017-12-08T21:56:35.928Z,98581.31
2017-12-08T21:59:10.403Z,98596.69
2017-12-08T22:01:44.501Z,98592.23
2017-12-08T22:04:18.994Z,98588.95
2017-12-08T22:06:53.438Z,98576.52
2017-12-08T22:09:27.810Z,98579.27
2017-12-08T22:12:02.245Z,98593.16
2017-12-08T22:14:36.698Z,98586.61
2017-12-08T22:17:11.154Z,98587.12
2017-12-08T22:19:45.672Z,98589.09
2017-12-08T22:22:20.206Z,98600.22
2017-12-08T22:24:54.614Z,98597.34
2017-12-08T22:27:29.078Z,98581.69
2017-12-08T22:32:45.795Z,98583.87
2017-12-08T22:35:20.597Z,98583.47
2017-12-08T22:37:55.032Z,98547.69
2017-12-08T22:40:29.358Z,98574.27
2017-12-08T22:43:03.856Z,98564.45
2017-12-08T22:45:38.234Z,98573.16
2017-12-08T22:48:12.839Z,98565.72
2017-12-08T22:50:46.985Z,98554.34
2017-12-08T22:53:21.487Z,98560.06
2017-12-08T22:55:55.945Z,98558.45
2017-12-08T22:58:30.466Z,98563.52
2017-12-08T23:01:04.961Z,98549.95
2017-12-08T23:03:39.572Z,98526.67
2017-12-08T23:06:14.003Z,98538.02
2017-12-08T23:08:48.622Z,98532.59
2017-12-08T23:11:23.090Z,98540.30
2017-12-08T23:13:57.674Z,98513.33
2017-12-08T23:16:32.122Z,98511.71
2017-12-08T23:19:06.620Z,98530.58
2017-12-08T23:21:40.974Z,98537.22
2017-12-08T23:24:15.546Z,98545.87
2017-12-08T23:26:50.007Z,98553.37
2017-12-08T23:29:24.501Z,98557.64
2017-12-08T23:31:58.871Z,98563.99
2017-12-08T23:34:33.394Z,98561.55
2017-12-08T23:37:07.911Z,98550.29
2017-12-08T23:39:42.398Z,98545.38
2017-12-08T23:42:16.794Z,98552.34
2017-12-08T23:44:51.372Z,98538.66
2017-12-08T23:47:25.823Z,98557.50
2017-12-08T23:50:00.310Z,98536.16
2017-12-08T23:52:34.886Z,98545.16
2017-12-08T23:55:15.726Z,98524.27
2017-12-08T23:57:50.244Z,98547.67
